Time;durP1;ratioP1;P1;durP2;ratioP2;P2;SDS_P1;SDS_P2;PMS_P1;PMS_P2;Temp;Humidity;BMP_temperature;BMP_pressure;BME280_temperature;BME280_humidity;BME280_pressure;Samples;Min_cycle;Max_cycle;Signal;HPM_P1;HPM_P2
2022/05/12 00:00:36;;;;;;;3.88;0.75;;;;;19.20;101195.00;;;;5087048;28;20195;-78
2022/05/12 00:03:05;;;;;;;4.10;0.45;;;;;19.10;101206.00;;;;5089439;28;20206;-78
2022/05/12 00:05:33;;;;;;;2.85;0.50;;;;;19.10;101215.00;;;;5071040;28;20207;-78
2022/05/12 00:08:00;;;;;;;6.57;0.93;;;;;19.10;101218.00;;;;5072637;28;20203;-79
2022/05/12 00:10:27;;;;;;;1.02;0.40;;;;;19.10;101227.00;;;;5083977;28;20198;-79
2022/05/12 00:12:59;;;;;;;2.92;0.55;;;;;19.00;101232.00;;;;5074505;28;20202;-79
2022/05/12 00:15:31;;;;;;;0.98;0.50;;;;;18.90;101229.00;;;;5087795;28;20190;-78
2022/05/12 00:18:02;;;;;;;2.35;0.50;;;;;19.00;101232.00;;;;5082285;28;20253;-78
2022/05/12 00:20:30;;;;;;;4.78;0.85;;;;;18.90;101242.00;;;;5078381;28;20206;-78
2022/05/12 00:23:08;;;;;;;3.05;0.85;;;;;18.80;101237.00;;;;5076354;28;21159;-78
2022/05/12 00:25:35;;;;;;;2.35;0.80;;;;;18.90;101244.00;;;;5086554;28;20678;-79
2022/05/12 00:28:05;;;;;;;2.25;0.40;;;;;18.80;101255.00;;;;5082561;28;20777;-78
2022/05/12 00:30:32;;;;;;;1.55;0.52;;;;;18.80;101247.00;;;;5083295;28;20260;-79
2022/05/12 00:33:00;;;;;;;1.17;0.50;;;;;18.70;101247.00;;;;5085180;28;20202;-78
2022/05/12 00:35:27;;;;;;;1.95;0.63;;;;;18.70;101255.00;;;;5089652;28;20210;-78
2022/05/12 00:37:54;;;;;;;1.60;0.40;;;;;18.70;101251.00;;;;5086623;28;20226;-78
2022/05/12 00:40:21;;;;;;;5.30;1.05;;;;;18.70;101263.00;;;;5075289;28;20222;-78
2022/05/12 00:42:57;;;;;;;3.83;1.48;;;;;18.50;101259.00;;;;5071850;28;20206;-78
2022/05/12 00:45:28;;;;;;;2.70;1.00;;;;;18.60;101259.00;;;;5085602;28;20209;-78
2022/05/12 00:47:55;;;;;;;3.97;0.63;;;;;18.60;101261.00;;;;5083343;28;20289;-78
2022/05/12 00:50:27;;;;;;;1.92;0.60;;;;;18.50;101260.00;;;;5085924;28;20221;-78
2022/05/12 00:52:54;;;;;;;2.03;0.40;;;;;18.50;101266.00;;;;5087028;28;20201;-79
2022/05/12 00:55:26;;;;;;;3.33;0.77;;;;;18.50;101261.00;;;;5083759;28;20397;-78
2022/05/12 00:57:56;;;;;;;1.77;0.88;;;;;18.40;101273.00;;;;5078512;28;20226;-78
2022/05/12 01:00:26;;;;;;;2.85;0.50;;;;;18.40;101267.00;;;;5080955;28;20965;-78
2022/05/12 01:02:57;;;;;;;4.72;1.20;;;;;18.40;101266.00;;;;5082747;28;21002;-79
2022/05/12 01:05:25;;;;;;;2.22;0.63;;;;;18.40;101278.00;;;;5088084;28;20611;-78
2022/05/12 01:07:56;;;;;;;2.97;0.50;;;;;18.30;101270.00;;;;5084643;28;20237;-78
2022/05/12 01:10:23;;;;;;;5.45;0.57;;;;;18.30;101268.00;;;;5088275;28;20277;-78
2022/05/12 01:12:51;;;;;;;1.98;0.95;;;;;18.20;101275.00;;;;5077308;28;20271;-78
2022/05/12 01:15:19;;;;;;;3.30;0.93;;;;;18.20;101277.00;;;;5074873;28;20277;-78
2022/05/12 01:17:49;;;;;;;7.45;0.98;;;;;18.10;101282.00;;;;5082073;28;20222;-78
2022/05/12 01:20:16;;;;;;;2.70;0.75;;;;;18.10;101283.00;;;;5077020;28;20603;-78
2022/05/12 01:22:49;;;;;;;0.65;0.50;;;;;18.10;101283.00;;;;5086033;28;20234;-78
2022/05/12 01:25:20;;;;;;;2.38;0.60;;;;;18.10;101287.00;;;;5083860;28;20190;-78
2022/05/12 01:27:48;;;;;;;2.10;1.10;;;;;18.10;101289.00;;;;5087401;28;20194;-78
2022/05/12 01:30:20;;;;;;;3.35;0.80;;;;;18.00;101286.00;;;;5083881;28;20611;-78
2022/05/12 01:32:48;;;;;;;1.08;0.50;;;;;18.00;101298.00;;;;5086939;28;20205;-78
2022/05/12 01:35:18;;;;;;;2.38;0.63;;;;;18.00;101303.00;;;;5085776;28;20202;-78
2022/05/12 01:37:47;;;;;;;4.80;0.90;;;;;17.90;101302.00;;;;5086537;28;20283;-78
2022/05/12 01:40:18;;;;;;;1.90;0.60;;;;;17.90;101308.00;;;;5086935;28;20610;-78
2022/05/12 01:42:45;;;;;;;3.40;0.85;;;;;17.90;101311.00;;;;5073945;28;20201;-78
2022/05/12 01:45:14;;;;;;;1.92;0.68;;;;;17.90;101306.00;;;;5077712;28;20285;-78
2022/05/12 01:47:42;;;;;;;2.53;0.75;;;;;17.90;101304.00;;;;5085253;28;20198;-77
2022/05/12 01:50:10;;;;;;;2.03;0.82;;;;;17.80;101313.00;;;;5074394;28;20657;-78
2022/05/12 01:52:39;;;;;;;2.20;0.70;;;;;17.80;101309.00;;;;5087027;28;20251;-78
2022/05/12 01:55:07;;;;;;;1.85;0.63;;;;;17.80;101306.00;;;;5079570;28;20186;-78
2022/05/12 01:57:36;;;;;;;3.03;0.98;;;;;17.80;101314.00;;;;5076917;28;20237;-78
2022/05/12 02:00:04;;;;;;;3.08;0.88;;;;;17.80;101318.00;;;;5078014;28;20191;-78
2022/05/12 02:02:31;;;;;;;2.38;0.90;;;;;17.80;101313.00;;;;5085476;28;20244;-78
2022/05/12 02:04:58;;;;;;;3.67;1.10;;;;;17.80;101318.00;;;;5087365;28;20263;-78
2022/05/12 02:07:26;;;;;;;1.50;1.00;;;;;17.80;101325.00;;;;5086701;28;20212;-78
2022/05/12 02:09:53;;;;;;;1.90;1.17;;;;;17.70;101335.00;;;;5088803;28;20198;-78
2022/05/12 02:12:20;;;;;;;2.55;1.10;;;;;17.70;101330.00;;;;5080674;28;20232;-78
2022/05/12 02:14:48;;;;;;;3.20;0.98;;;;;17.70;101330.00;;;;5086532;28;20198;-78
2022/05/12 02:17:16;;;;;;;1.75;0.85;;;;;17.70;101326.00;;;;5086778;28;20231;-78
2022/05/12 02:19:43;;;;;;;2.97;0.77;;;;;17.70;101329.00;;;;5073033;28;20202;-78
2022/05/12 02:22:10;;;;;;;2.58;1.00;;;;;17.70;101336.00;;;;5087004;28;20863;-78
2022/05/12 02:24:37;;;;;;;2.13;1.15;;;;;17.70;101344.00;;;;5086874;28;20277;-78
2022/05/12 02:27:05;;;;;;;1.85;1.20;;;;;17.60;101337.00;;;;5078826;28;20206;-78
2022/05/12 02:29:32;;;;;;;4.70;1.02;;;;;17.60;101348.00;;;;5084619;28;20194;-78
2022/05/12 02:32:01;;;;;;;1.30;0.73;;;;;17.60;101356.00;;;;5089689;28;20202;-78
2022/05/12 02:34:28;;;;;;;3.90;0.93;;;;;17.60;101350.00;;;;5088190;28;20198;-78
2022/05/12 02:37:05;;;;;;;3.55;1.30;;;;;17.60;101356.00;;;;5080165;28;20610;-79
2022/05/12 02:39:35;;;;;;;2.28;0.90;;;;;17.50;101358.00;;;;5078662;28;20241;-78
2022/05/12 02:42:03;;;;;;;2.33;1.13;;;;;17.50;101365.00;;;;5083479;28;20943;-78
2022/05/12 02:44:31;;;;;;;1.70;0.95;;;;;17.50;101367.00;;;;5091659;28;20250;-78
2022/05/12 02:46:59;;;;;;;1.92;0.82;;;;;17.50;101381.00;;;;5083006;28;20285;-79
2022/05/12 02:49:27;;;;;;;2.95;1.10;;;;;17.40;101378.00;;;;5088913;28;20234;-78
2022/05/12 02:51:54;;;;;;;2.92;1.17;;;;;17.40;101382.00;;;;5090742;28;20194;-78
2022/05/12 02:54:21;;;;;;;1.73;1.02;;;;;17.40;101381.00;;;;5088687;28;20198;-78
2022/05/12 02:56:52;;;;;;;1.77;1.17;;;;;17.40;101390.00;;;;5089414;28;20198;-78
2022/05/12 02:59:19;;;;;;;3.20;1.27;;;;;17.40;101390.00;;;;5085264;28;20306;-78
2022/05/12 03:01:46;;;;;;;2.53;1.25;;;;;17.30;101388.00;;;;5087199;28;20737;-78
2022/05/12 03:04:15;;;;;;;2.47;1.13;;;;;17.30;101390.00;;;;5091937;28;20202;-78
2022/05/12 03:06:43;;;;;;;3.40;1.30;;;;;17.30;101389.00;;;;5090760;28;20198;-78
2022/05/12 03:09:11;;;;;;;2.90;1.30;;;;;17.20;101385.00;;;;5085053;28;20207;-78
2022/05/12 03:11:39;;;;;;;3.25;1.33;;;;;17.20;101390.00;;;;5084047;28;20190;-78
2022/05/12 03:14:06;;;;;;;2.15;1.40;;;;;17.20;101395.00;;;;5088773;28;20711;-78
2022/05/12 03:16:33;;;;;;;2.13;1.30;;;;;17.20;101394.00;;;;5089086;28;20194;-78
2022/05/12 03:19:01;;;;;;;4.13;1.10;;;;;17.20;101396.00;;;;5088088;28;20740;-78
2022/05/12 03:21:30;;;;;;;1.20;0.93;;;;;17.10;101403.00;;;;5083263;28;20205;-78
2022/05/12 03:23:57;;;;;;;1.48;1.20;;;;;17.10;101395.00;;;;5091556;28;20206;-78
2022/05/12 03:26:25;;;;;;;3.45;1.45;;;;;17.10;101399.00;;;;5085800;28;20186;-78
2022/05/12 03:28:52;;;;;;;3.80;1.38;;;;;17.10;101398.00;;;;5077292;28;20203;-78
2022/05/12 03:31:20;;;;;;;2.10;1.23;;;;;17.10;101402.00;;;;5077630;28;20199;-79
2022/05/12 03:33:48;;;;;;;1.40;1.20;;;;;17.10;101411.00;;;;5087535;28;20205;-78
2022/05/12 03:36:16;;;;;;;3.45;1.10;;;;;17.00;101407.00;;;;5089815;28;20321;-78
2022/05/12 03:38:45;;;;;;;3.22;1.50;;;;;17.00;101410.00;;;;5084201;28;20293;-78
2022/05/12 03:41:12;;;;;;;1.50;1.20;;;;;17.00;101422.00;;;;5086470;28;20199;-78
2022/05/12 03:46:31;;;;;;;2.67;1.10;;;;;17.00;101423.00;;;;5044068;28;20658;-79
2022/05/12 03:48:58;;;;;;;2.17;1.30;;;;;16.90;101427.00;;;;5082127;28;20293;-78
2022/05/12 03:51:26;;;;;;;1.92;1.30;;;;;16.90;101432.00;;;;5085398;28;20894;-78
2022/05/12 03:53:54;;;;;;;3.75;1.70;;;;;16.90;101432.00;;;;5088964;28;20206;-78
2022/05/12 03:56:22;;;;;;;2.13;1.20;;;;;16.90;101435.00;;;;5080048;28;20939;-78
2022/05/12 03:58:49;;;;;;;1.38;1.10;;;;;16.80;101446.00;;;;5084254;28;20332;-78
2022/05/12 04:01:16;;;;;;;3.22;1.67;;;;;16.80;101442.00;;;;5074185;28;20202;-78
2022/05/12 04:03:45;;;;;;;2.70;1.38;;;;;16.80;101443.00;;;;5071846;28;20652;-78
2022/05/12 04:06:12;;;;;;;1.08;0.98;;;;;16.80;101436.00;;;;5086158;28;20221;-78
2022/05/12 04:08:39;;;;;;;3.83;1.38;;;;;16.80;101442.00;;;;5090704;28;20661;-78
2022/05/12 04:11:08;;;;;;;3.58;1.38;;;;;16.80;101444.00;;;;5085395;28;20199;-78
2022/05/12 04:13:35;;;;;;;1.88;1.30;;;;;16.80;101453.00;;;;5086987;28;20194;-78
2022/05/12 04:16:03;;;;;;;1.50;1.40;;;;;16.70;101452.00;;;;5083482;28;20198;-78
2022/05/12 04:18:31;;;;;;;1.48;1.10;;;;;16.80;101453.00;;;;5084494;28;20222;-78
2022/05/12 04:20:58;;;;;;;2.63;1.48;;;;;16.80;101458.00;;;;5084822;28;20289;-78
2022/05/12 04:23:25;;;;;;;2.22;1.38;;;;;16.80;101462.00;;;;5088506;28;20198;-78
2022/05/12 04:25:53;;;;;;;2.83;1.17;;;;;16.70;101463.00;;;;5080723;28;20606;-78
2022/05/12 04:28:21;;;;;;;1.50;1.33;;;;;16.70;101461.00;;;;5088018;28;20202;-78
2022/05/12 04:30:48;;;;;;;2.00;1.27;;;;;16.70;101467.00;;;;5082935;28;20199;-78
2022/05/12 04:36:00;;;;;;;2.83;1.23;;;;;16.70;101478.00;;;;5074976;28;20206;-78
2022/05/12 04:38:27;;;;;;;2.00;1.38;;;;;16.70;101478.00;;;;5071725;28;20288;-78
2022/05/12 04:40:55;;;;;;;2.08;1.25;;;;;16.70;101481.00;;;;5085814;28;20219;-78
2022/05/12 04:43:23;;;;;;;1.55;1.10;;;;;16.70;101484.00;;;;5087720;28;20194;-78
2022/05/12 04:45:51;;;;;;;3.20;1.45;;;;;16.80;101492.00;;;;5085577;28;20202;-78
2022/05/12 04:48:18;;;;;;;3.63;1.80;;;;;16.80;101489.00;;;;5082324;28;20198;-78
2022/05/12 04:50:45;;;;;;;1.70;1.20;;;;;16.80;101492.00;;;;5081651;28;20664;-78
2022/05/12 04:53:13;;;;;;;2.13;1.35;;;;;16.80;101503.00;;;;5087385;28;20195;-78
2022/05/12 04:55:40;;;;;;;1.85;1.20;;;;;16.90;101496.00;;;;5080973;28;21211;-78
2022/05/12 04:58:07;;;;;;;1.63;1.42;;;;;16.90;101503.00;;;;5085217;28;20832;-77
2022/05/12 05:00:40;;;;;;;2.42;1.02;;;;;16.90;101501.00;;;;5080342;28;20205;-78
2022/05/12 05:03:09;;;;;;;1.90;1.40;;;;;17.00;101500.00;;;;5083804;28;20253;-79
2022/05/12 05:05:36;;;;;;;2.80;1.58;;;;;17.00;101507.00;;;;5083770;28;20644;-78
2022/05/12 05:08:05;;;;;;;3.10;1.60;;;;;17.10;101510.00;;;;5089565;28;20209;-78
2022/05/12 05:10:33;;;;;;;3.65;1.85;;;;;17.10;101511.00;;;;5082726;28;20202;-78
2022/05/12 05:13:00;;;;;;;1.90;1.25;;;;;17.20;101510.00;;;;5084573;28;20202;-78
2022/05/12 05:15:28;;;;;;;1.88;1.60;;;;;17.20;101515.00;;;;5082575;28;20264;-79
2022/05/12 05:17:56;;;;;;;2.35;1.27;;;;;17.30;101511.00;;;;5085386;28;20206;-78
2022/05/12 05:20:26;;;;;;;2.47;1.40;;;;;17.30;101521.00;;;;5087974;28;20642;-78
2022/05/12 05:22:53;;;;;;;2.70;1.67;;;;;17.40;101533.00;;;;5083688;28;20206;-79
2022/05/12 05:25:21;;;;;;;1.65;1.48;;;;;17.50;101527.00;;;;5088585;28;20209;-78
2022/05/12 05:27:50;;;;;;;2.13;1.38;;;;;17.50;101531.00;;;;5088283;28;20225;-77
2022/05/12 05:30:21;;;;;;;3.20;1.55;;;;;17.60;101532.00;;;;5076330;28;20557;-78
2022/05/12 05:32:51;;;;;;;3.38;1.35;;;;;17.60;101545.00;;;;5073277;28;20222;-78
2022/05/12 05:35:20;;;;;;;2.30;1.67;;;;;17.70;101543.00;;;;5086885;28;20202;-78
2022/05/12 05:37:49;;;;;;;3.83;1.58;;;;;17.80;101544.00;;;;5080744;28;20282;-79
2022/05/12 05:40:19;;;;;;;3.45;1.52;;;;;17.90;101550.00;;;;5080345;28;20225;-78
2022/05/12 05:42:47;;;;;;;2.30;1.67;;;;;17.90;101551.00;;;;5082384;28;20207;-77
2022/05/12 05:45:17;;;;;;;4.13;1.80;;;;;18.00;101563.00;;;;5087256;28;20603;-78
2022/05/12 05:47:49;;;;;;;3.13;2.03;;;;;18.10;101570.00;;;;5075076;28;20201;-80
2022/05/12 05:50:21;;;;;;;2.70;1.70;;;;;18.20;101577.00;;;;5087890;28;20230;-78
2022/05/12 05:55:33;;;;;;;3.10;1.95;;;;;18.40;101582.00;;;;5084587;28;20286;-77
2022/05/12 05:58:01;;;;;;;3.50;2.28;;;;;18.40;101592.00;;;;5084843;28;20194;-77
2022/05/12 06:00:29;;;;;;;2.90;1.70;;;;;18.50;101589.00;;;;5075633;28;20225;-76
2022/05/12 06:02:56;;;;;;;4.13;2.25;;;;;18.60;101599.00;;;;5084050;28;22149;-76
2022/05/12 06:05:24;;;;;;;4.50;2.00;;;;;18.70;101606.00;;;;5086768;28;20500;-78
2022/05/12 06:07:53;;;;;;;5.20;1.67;;;;;18.80;101621.00;;;;5084958;28;20207;-77
2022/05/12 06:10:20;;;;;;;4.72;2.55;;;;;18.90;101616.00;;;;5082949;28;20201;-77
2022/05/12 06:12:49;;;;;;;3.55;1.73;;;;;18.90;101626.00;;;;5075808;28;20201;-77
2022/05/12 06:15:17;;;;;;;3.00;1.92;;;;;19.00;101621.00;;;;5083472;28;20194;-77
2022/05/12 06:17:44;;;;;;;2.72;2.10;;;;;19.10;101622.00;;;;5079509;28;20289;-78
2022/05/12 06:20:12;;;;;;;4.10;2.30;;;;;19.20;101620.00;;;;5085744;28;20230;-78
2022/05/12 06:22:41;;;;;;;2.40;1.63;;;;;19.20;101622.00;;;;5083486;28;20679;-78
2022/05/12 06:25:12;;;;;;;2.70;1.90;;;;;19.30;101621.00;;;;5079747;28;20205;-78
2022/05/12 06:27:39;;;;;;;3.20;2.17;;;;;19.40;101630.00;;;;5083758;28;20202;-79
2022/05/12 06:30:11;;;;;;;2.92;1.63;;;;;19.50;101631.00;;;;5087792;28;20198;-79
2022/05/12 06:32:38;;;;;;;5.70;2.08;;;;;19.60;101642.00;;;;5085728;28;20198;-78
2022/05/12 06:35:07;;;;;;;6.30;2.13;;;;;19.60;101641.00;;;;5087328;28;20217;-79
2022/05/12 06:37:35;;;;;;;3.50;1.83;;;;;19.70;101642.00;;;;5082526;28;20673;-79
2022/05/12 06:40:04;;;;;;;4.20;1.90;;;;;19.70;101641.00;;;;5077956;28;20604;-79
2022/05/12 06:42:31;;;;;;;3.75;1.85;;;;;19.80;101647.00;;;;5073401;28;20203;-78
2022/05/12 06:44:59;;;;;;;4.88;1.85;;;;;19.90;101650.00;;;;5085237;28;20205;-78
2022/05/12 06:47:27;;;;;;;3.78;1.92;;;;;20.00;101660.00;;;;5080215;28;20202;-79
2022/05/12 06:49:54;;;;;;;2.78;1.33;;;;;20.00;101667.00;;;;5070877;28;20241;-78
2022/05/12 06:52:21;;;;;;;3.72;1.80;;;;;20.10;101662.00;;;;5087217;28;20209;-77
2022/05/12 06:54:49;;;;;;;4.15;1.63;;;;;20.20;101657.00;;;;5086384;28;20227;-76
2022/05/12 06:57:23;;;;;;;6.63;1.92;;;;;20.20;101659.00;;;;5087280;28;20236;-78
2022/05/12 06:59:52;;;;;;;3.95;1.50;;;;;20.40;101663.00;;;;5085417;28;20325;-77
2022/05/12 07:02:19;;;;;;;4.72;1.58;;;;;20.50;101670.00;;;;5080350;28;20208;-78
2022/05/12 07:04:46;;;;;;;2.80;1.40;;;;;20.50;101670.00;;;;5087410;28;20301;-78
2022/05/12 07:07:13;;;;;;;3.60;1.45;;;;;20.60;101677.00;;;;5087754;28;20270;-77
2022/05/12 07:09:41;;;;;;;4.18;2.15;;;;;20.70;101678.00;;;;5082717;28;20320;-77
2022/05/12 07:12:11;;;;;;;2.53;1.60;;;;;20.80;101680.00;;;;5095949;28;20206;-78
2022/05/12 07:14:39;;;;;;;4.47;1.50;;;;;20.90;101680.00;;;;5076652;28;20210;-77
2022/05/12 07:17:07;;;;;;;1.90;1.52;;;;;21.00;101681.00;;;;5085447;28;20258;-77
2022/05/12 07:19:34;;;;;;;2.80;1.67;;;;;21.10;101683.00;;;;5088745;28;20229;-77
2022/05/12 07:27:31;;;;;;;2.88;1.38;;;;;21.40;101691.00;;;;5088610;28;20200;-77
2022/05/12 07:29:59;;;;;;;5.85;1.35;;;;;21.40;101693.00;;;;5089101;28;20202;-77
2022/05/12 07:32:27;;;;;;;5.43;1.90;;;;;21.50;101700.00;;;;5090966;28;20217;-77
2022/05/12 07:34:54;;;;;;;4.00;2.00;;;;;21.60;101704.00;;;;5090627;28;20206;-77
2022/05/12 07:37:21;;;;;;;6.15;1.80;;;;;21.70;101706.00;;;;5087608;28;20202;-77
2022/05/12 07:39:48;;;;;;;2.63;1.50;;;;;21.80;101706.00;;;;5086476;28;21046;-77
2022/05/12 07:42:15;;;;;;;3.45;1.48;;;;;21.90;101717.00;;;;5090655;28;20194;-77
2022/05/12 07:44:43;;;;;;;3.10;1.52;;;;;22.00;101719.00;;;;5091374;28;20206;-78
2022/05/12 07:47:13;;;;;;;3.95;1.67;;;;;22.00;101713.00;;;;5089007;28;20678;-77
2022/05/12 07:49:42;;;;;;;3.40;1.52;;;;;22.20;101714.00;;;;5090579;28;20593;-77
2022/05/12 07:52:12;;;;;;;3.58;1.40;;;;;22.30;101725.00;;;;5089588;28;20620;-77
2022/05/12 07:54:39;;;;;;;2.83;1.50;;;;;22.40;101715.00;;;;5090698;28;20203;-77
2022/05/12 07:57:07;;;;;;;4.47;1.52;;;;;22.50;101721.00;;;;5090223;28;21256;-77
2022/05/12 07:59:34;;;;;;;4.63;1.73;;;;;22.60;101714.00;;;;5087685;28;20226;-78
2022/05/12 08:02:02;;;;;;;2.22;1.30;;;;;22.70;101721.00;;;;5082272;28;20202;-77
2022/05/12 08:04:32;;;;;;;4.32;1.58;;;;;22.80;101720.00;;;;5088684;28;20263;-78
2022/05/12 08:07:01;;;;;;;2.33;1.15;;;;;23.00;101727.00;;;;5079519;28;20199;-78
2022/05/12 08:09:28;;;;;;;2.28;1.35;;;;;23.10;101715.00;;;;5087036;28;20209;-78
2022/05/12 08:11:55;;;;;;;2.83;1.40;;;;;23.20;101725.00;;;;5080745;28;20199;-78
2022/05/12 08:14:23;;;;;;;3.05;1.17;;;;;23.30;101720.00;;;;5083297;28;20194;-78
2022/05/12 08:16:50;;;;;;;2.92;1.20;;;;;23.40;101726.00;;;;5081953;28;21122;-78
2022/05/12 08:19:17;;;;;;;3.17;1.65;;;;;23.50;101730.00;;;;5077880;28;20214;-77
2022/05/12 08:21:46;;;;;;;5.53;1.30;;;;;23.50;101729.00;;;;5078036;28;20207;-77
2022/05/12 08:24:13;;;;;;;1.70;0.95;;;;;23.60;101736.00;;;;5081208;28;20557;-77
2022/05/12 08:26:42;;;;;;;4.60;1.00;;;;;23.60;101741.00;;;;5075272;28;20201;-77
2022/05/12 08:29:10;;;;;;;2.00;0.93;;;;;23.60;101745.00;;;;5078589;28;20233;-77
2022/05/12 08:31:37;;;;;;;2.33;1.10;;;;;23.60;101740.00;;;;5078243;28;20194;-77
2022/05/12 08:34:04;;;;;;;2.28;0.82;;;;;23.70;101739.00;;;;5080403;28;20202;-78
2022/05/12 08:36:31;;;;;;;2.67;1.27;;;;;23.80;101741.00;;;;5076296;28;20201;-77
2022/05/12 08:39:00;;;;;;;2.53;1.05;;;;;23.80;101739.00;;;;5079271;28;20198;-78
2022/05/12 08:41:34;;;;;;;1.27;0.80;;;;;23.90;101749.00;;;;5079810;28;20234;-78
2022/05/12 08:44:06;;;;;;;4.22;0.80;;;;;23.90;101744.00;;;;5083560;28;20205;-78
2022/05/12 08:46:41;;;;;;;3.25;0.77;;;;;23.80;101745.00;;;;5076284;28;20198;-78
2022/05/12 08:49:21;;;;;;;1.63;0.95;;;;;23.80;101752.00;;;;5077267;28;20220;-77
2022/05/12 08:51:52;;;;;;;3.53;1.00;;;;;23.80;101747.00;;;;5077755;28;20205;-77
2022/05/12 08:54:24;;;;;;;2.85;1.02;;;;;23.80;101747.00;;;;5078501;28;20191;-78
2022/05/12 08:56:59;;;;;;;4.32;1.33;;;;;23.90;101760.00;;;;5077957;28;20674;-78
2022/05/12 08:59:27;;;;;;;2.72;0.90;;;;;24.00;101765.00;;;;5078623;28;20324;-77
2022/05/12 09:02:02;;;;;;;2.70;1.13;;;;;24.00;101762.00;;;;5078339;28;20590;-78
2022/05/12 09:04:52;;;;;;;1.98;0.90;;;;;24.00;101763.00;;;;5085232;28;20750;-79
2022/05/12 09:07:27;;;;;;;1.70;0.98;;;;;24.10;101765.00;;;;5083966;28;20240;-76
2022/05/12 09:10:02;;;;;;;3.05;1.33;;;;;24.20;101767.00;;;;5089173;28;20285;-78
2022/05/12 09:12:38;;;;;;;2.42;0.80;;;;;24.20;101773.00;;;;5086431;28;20202;-78
2022/05/12 09:15:09;;;;;;;3.70;1.00;;;;;24.30;101776.00;;;;5087182;28;20247;-79
2022/05/12 09:17:40;;;;;;;3.28;1.10;;;;;24.30;101767.00;;;;5087038;28;20197;-78
2022/05/12 09:20:10;;;;;;;1.67;1.00;;;;;24.40;101768.00;;;;5088728;28;20225;-78
2022/05/12 09:22:38;;;;;;;1.80;1.05;;;;;24.40;101774.00;;;;5088408;28;20289;-78
2022/05/12 09:25:08;;;;;;;2.05;0.85;;;;;24.40;101775.00;;;;5088860;28;20620;-77
2022/05/12 09:27:38;;;;;;;2.85;1.13;;;;;24.40;101771.00;;;;5087666;28;20209;-78
2022/05/12 09:30:08;;;;;;;2.80;1.17;;;;;24.50;101778.00;;;;5076418;28;20573;-78
2022/05/12 09:32:38;;;;;;;1.00;0.60;;;;;24.60;101773.00;;;;5075991;28;20202;-78
2022/05/12 09:35:24;;;;;;;4.50;1.23;;;;;24.70;101770.00;;;;5084607;28;20195;-77
2022/05/12 09:37:53;;;;;;;2.63;1.30;;;;;24.80;101769.00;;;;5066125;28;20207;-77
2022/05/12 09:40:34;;;;;;;1.55;1.10;;;;;24.90;101771.00;;;;5074230;28;20234;-77
2022/05/12 09:43:03;;;;;;;3.20;1.42;;;;;25.00;101768.00;;;;5069345;28;20187;-78
2022/05/12 09:45:33;;;;;;;2.10;1.08;;;;;25.20;101775.00;;;;5087329;28;20191;-78
2022/05/12 09:48:23;;;;;;;2.08;0.90;;;;;25.30;101767.00;;;;5078177;28;20197;-77
2022/05/12 09:50:52;;;;;;;1.35;1.13;;;;;25.40;101776.00;;;;5087619;28;20210;-78
2022/05/12 09:53:27;;;;;;;5.57;1.60;;;;;25.40;101767.00;;;;5079967;28;20202;-77
2022/05/12 09:56:06;;;;;;;4.80;1.98;;;;;25.40;101764.00;;;;5075164;28;20216;-77
2022/05/12 09:58:39;;;;;;;3.15;1.50;;;;;25.50;101763.00;;;;5076733;28;20197;-77
2022/05/12 10:01:22;;;;;;;5.03;1.33;;;;;25.60;101768.00;;;;5075168;28;20217;-79
2022/05/12 10:09:26;;;;;;;8.82;1.05;;;;;26.00;101766.00;;;;5072935;28;20216;-77
2022/05/12 10:12:06;;;;;;;1.88;0.80;;;;;26.10;101773.00;;;;5078614;28;20209;-78
2022/05/12 10:14:40;;;;;;;2.85;0.90;;;;;26.10;101769.00;;;;5079625;28;20285;-77
2022/05/12 10:17:18;;;;;;;1.02;0.57;;;;;26.20;101767.00;;;;5077779;28;20209;-77
2022/05/12 10:19:46;;;;;;;3.05;0.93;;;;;26.30;101767.00;;;;5070990;28;20561;-78
2022/05/12 10:22:17;;;;;;;5.18;1.38;;;;;26.30;101774.00;;;;5074538;28;20282;-78
2022/05/12 10:24:58;;;;;;;3.10;0.80;;;;;26.40;101779.00;;;;5073968;28;20257;-78
2022/05/12 10:27:38;;;;;;;1.65;0.80;;;;;26.50;101769.00;;;;5076794;28;20218;-78
2022/05/12 10:30:17;;;;;;;1.65;0.80;;;;;26.60;101786.00;;;;5072344;28;20193;-78
2022/05/12 10:32:56;;;;;;;2.25;0.80;;;;;26.60;101784.00;;;;5074442;28;20198;-78
2022/05/12 10:35:32;;;;;;;1.85;0.80;;;;;26.60;101782.00;;;;5076917;28;20197;-77
2022/05/12 10:38:07;;;;;;;1.17;0.50;;;;;26.60;101786.00;;;;5082686;28;20186;-77
2022/05/12 10:40:40;;;;;;;3.80;1.25;;;;;26.60;101776.00;;;;5085759;28;20229;-76
2022/05/12 10:43:45;;;;;;;0.75;0.60;;;;;26.50;101786.00;;;;5079809;28;20232;-76
2022/05/12 10:46:17;;;;;;;1.90;0.77;;;;;26.50;101787.00;;;;5089194;28;20205;-76
2022/05/12 10:48:52;;;;;;;1.10;0.70;;;;;26.40;101784.00;;;;5088350;28;20324;-76
2022/05/12 10:51:30;;;;;;;1.88;0.90;;;;;26.30;101784.00;;;;5085861;28;20304;-76
2022/05/12 10:54:10;;;;;;;2.25;0.80;;;;;26.30;101782.00;;;;5091989;28;20205;-76
2022/05/12 10:56:53;;;;;;;1.60;0.90;;;;;26.30;101782.00;;;;5084143;28;20191;-76
2022/05/12 10:59:43;;;;;;;2.60;1.25;;;;;26.20;101779.00;;;;5076117;28;20202;-77
2022/05/12 11:02:16;;;;;;;2.08;1.02;;;;;26.30;101775.00;;;;5071769;28;20231;-76
2022/05/12 11:04:48;;;;;;;3.08;1.10;;;;;26.40;101771.00;;;;5071052;28;20636;-76
2022/05/12 11:07:23;;;;;;;1.88;0.80;;;;;26.50;101769.00;;;;5069854;28;20198;-76
2022/05/12 11:09:58;;;;;;;2.15;0.88;;;;;26.50;101770.00;;;;5069288;28;20381;-76
2022/05/12 11:12:32;;;;;;;1.45;0.70;;;;;26.50;101776.00;;;;5070120;28;20206;-76
2022/05/12 11:15:08;;;;;;;3.97;1.00;;;;;26.50;101775.00;;;;5069335;28;20195;-76
2022/05/12 11:17:40;;;;;;;1.92;0.80;;;;;26.40;101780.00;;;;5084875;28;20233;-76
2022/05/12 11:20:18;;;;;;;2.25;1.13;;;;;26.30;101779.00;;;;5069467;28;20233;-77
2022/05/12 11:22:53;;;;;;;2.38;1.00;;;;;26.30;101770.00;;;;5071690;28;20195;-76
2022/05/12 11:25:29;;;;;;;2.40;0.80;;;;;26.30;101765.00;;;;5071167;28;20198;-76
2022/05/12 11:31:06;;;;;;;1.33;0.80;;;;;26.10;101769.00;;;;5089529;28;20201;-75
2022/05/12 11:33:38;;;;;;;5.32;1.17;;;;;26.10;101767.00;;;;5090850;28;20618;-76
2022/05/12 11:36:08;;;;;;;1.60;0.63;;;;;26.20;101769.00;;;;5090741;28;20253;-76
2022/05/12 11:38:53;;;;;;;1.95;0.90;;;;;26.10;101767.00;;;;5090918;28;20198;-76
2022/05/12 11:41:40;;;;;;;2.35;0.90;;;;;25.90;101761.00;;;;5091068;28;20229;-76
2022/05/12 11:44:26;;;;;;;2.80;0.68;;;;;25.90;101770.00;;;;5090790;28;20221;-76
2022/05/12 11:47:31;;;;;;;2.72;0.70;;;;;25.80;101773.00;;;;5090979;28;20248;-76
2022/05/12 11:50:27;;;;;;;1.92;0.68;;;;;25.80;101776.00;;;;5079610;28;20716;-76
2022/05/12 11:53:03;;;;;;;1.52;1.05;;;;;25.80;101755.00;;;;5088006;28;20191;-76
2022/05/12 11:55:32;;;;;;;4.13;0.90;;;;;25.90;101760.00;;;;5090586;28;20233;-76
2022/05/12 11:58:05;;;;;;;1.95;0.70;;;;;25.80;101763.00;;;;5080557;28;20268;-76
2022/05/12 12:00:59;;;;;;;1.33;0.70;;;;;25.60;101768.00;;;;5082073;28;20195;-76
2022/05/12 12:03:55;;;;;;;1.08;0.70;;;;;25.60;101754.00;;;;5069938;28;20249;-76
2022/05/12 12:06:47;;;;;;;1.65;0.60;;;;;25.60;101758.00;;;;5082148;28;20204;-76
2022/05/12 12:09:48;;;;;;;2.10;0.63;;;;;25.60;101763.00;;;;5090505;28;20707;-76
2022/05/12 12:13:00;;;;;;;1.92;0.50;;;;;25.60;101762.00;;;;5086273;28;20664;-76
2022/05/12 12:15:59;;;;;;;0.80;0.50;;;;;25.60;101765.00;;;;5024765;28;20205;-76
2022/05/12 12:19:02;;;;;;;3.00;0.70;;;;;25.50;101756.00;;;;5045058;28;20199;-76
2022/05/12 12:22:12;;;;;;;1.00;0.47;;;;;25.50;101749.00;;;;5072107;28;20258;-76
2022/05/12 12:25:02;;;;;;;2.05;0.50;;;;;25.70;101768.00;;;;5075564;28;20409;-76
2022/05/12 12:28:06;;;;;;;1.00;0.60;;;;;25.60;101751.00;;;;5088099;28;20664;-76
2022/05/12 12:31:03;;;;;;;2.38;0.70;;;;;25.70;101754.00;;;;5069472;28;20214;-76
2022/05/12 12:34:09;;;;;;;1.85;0.73;;;;;25.70;101760.00;;;;5072777;28;20195;-77
2022/05/12 12:36:58;;;;;;;0.90;0.45;;;;;25.80;101760.00;;;;5078643;28;20194;-77
2022/05/12 12:39:37;;;;;;;2.65;0.60;;;;;25.90;101753.00;;;;5089920;28;20233;-76
2022/05/12 12:42:21;;;;;;;1.30;0.47;;;;;26.00;101759.00;;;;5089671;28;21042;-77
2022/05/12 12:44:52;;;;;;;1.20;0.45;;;;;26.10;101755.00;;;;5078014;28;20202;-76
2022/05/12 12:47:29;;;;;;;1.48;0.70;;;;;26.10;101754.00;;;;5079140;28;20190;-76
2022/05/12 12:50:06;;;;;;;2.25;0.70;;;;;26.20;101740.00;;;;5090161;28;20222;-77
2022/05/12 12:52:41;;;;;;;0.98;0.35;;;;;26.30;101744.00;;;;5089097;28;20247;-76